Time;durP1;ratioP1;P1;durP2;ratioP2;P2;SDS_P1;SDS_P2;PMS_P1;PMS_P2;Temp;Humidity;BMP_temperature;BMP_pressure;BME280_temperature;BME280_humidity;BME280_pressure;Samples;Min_cycle;Max_cycle;Signal;HPM_P1;HPM_P2
2022/12/22 03:26:01;;;;;;;39.43;24.00;;;;;;;-145.18;100.00;46691.66;5052201;28;20051;-73
2022/12/22 03:28:27;;;;;;;40.90;23.87;;;;;;;-145.18;100.00;46701.41;5051920;28;20473;-72
2022/12/22 03:31:04;;;;;;;37.53;23.67;;;;;;;-145.18;100.00;46691.66;5051813;28;20060;-72
2022/12/22 03:33:30;;;;;;;37.70;23.30;;;;;;;-145.18;100.00;46687.75;5050900;28;20508;-72
2022/12/22 03:35:57;;;;;;;46.67;23.47;;;;;;;-145.18;100.00;46701.41;5051456;28;20274;-72
2022/12/22 03:38:23;;;;;;;33.63;23.03;;;;;;;-145.18;100.00;46691.66;5051701;28;20083;-72
2022/12/22 03:40:48;;;;;;;40.77;22.33;;;;;;;-145.18;100.00;46687.75;5051835;28;20784;-72
2022/12/22 03:49:08;;;;;;;47.67;22.50;;;;;;;-145.18;100.00;46691.66;5051595;28;20149;-72
2022/12/22 03:51:35;;;;;;;111.00;22.70;;;;;;;-145.18;100.00;46687.75;5051442;28;20063;-73
2022/12/22 03:54:00;;;;;;;40.93;21.90;;;;;;;-145.18;100.00;46695.56;5050990;28;20686;-73
2022/12/22 03:56:26;;;;;;;47.60;22.87;;;;;;;-145.18;100.00;46693.59;5051588;28;20140;-72
2022/12/22 03:58:51;;;;;;;78.17;21.80;;;;;;;-145.18;100.00;46697.50;5050702;28;20084;-73
2022/12/22 04:01:17;;;;;;;237.80;28.03;;;;;;;-145.18;100.00;46695.56;5048532;28;20113;-72
2022/12/22 04:03:42;;;;;;;54.97;22.77;;;;;;;-145.18;100.00;46689.69;5030818;28;20421;-73
2022/12/22 04:06:07;;;;;;;203.57;26.30;;;;;;;-145.18;100.00;46699.47;5031379;28;20037;-73
2022/12/22 04:08:33;;;;;;;308.63;29.00;;;;;;;-145.18;100.00;46687.75;5031274;28;20128;-73
2022/12/22 04:13:42;;;;;;;81.97;23.77;;;;;;;-145.18;100.00;46697.50;5024180;28;20040;-73
2022/12/22 04:16:07;;;;;;;51.77;22.13;;;;;;;-145.18;100.00;46701.41;5031181;28;20061;-72
2022/12/22 04:18:33;;;;;;;46.63;22.40;;;;;;;-145.18;100.00;46695.56;5031086;28;20091;-72
2022/12/22 04:20:58;;;;;;;261.93;28.43;;;;;;;-145.18;100.00;46689.69;5030753;28;20048;-72
2022/12/22 04:23:23;;;;;;;96.60;23.63;;;;;;;-145.18;100.00;46701.41;5030688;28;20047;-72
2022/12/22 04:25:49;;;;;;;122.67;23.67;;;;;;;-145.18;100.00;46697.50;5013334;28;20034;-72
2022/12/22 04:28:14;;;;;;;137.13;24.87;;;;;;;-145.18;100.00;46709.22;5030695;28;20041;-72
2022/12/22 04:30:40;;;;;;;146.87;25.63;;;;;;;-145.18;100.00;46695.56;5031186;28;20502;-73
2022/12/22 04:33:05;;;;;;;65.53;22.93;;;;;;;-145.18;100.00;46699.47;5030318;28;20029;-72
2022/12/22 04:35:30;;;;;;;52.77;21.70;;;;;;;-145.18;100.00;46697.50;5026187;28;20299;-73
2022/12/22 04:37:56;;;;;;;90.00;23.23;;;;;;;-145.18;100.00;46699.47;5010690;28;20045;-72
2022/12/22 04:40:21;;;;;;;171.67;24.47;;;;;;;-145.18;100.00;46697.50;5011411;28;20088;-73
2022/12/22 04:42:46;;;;;;;113.83;23.23;;;;;;;-145.18;100.00;46701.41;5012365;28;20148;-72
2022/12/22 04:45:12;;;;;;;92.40;23.17;;;;;;;-145.18;100.00;46697.50;5030182;28;20029;-73
2022/12/22 04:47:37;;;;;;;57.17;23.37;;;;;;;-145.18;100.00;46701.41;5030395;28;20033;-73
2022/12/22 04:50:03;;;;;;;66.30;24.37;;;;;;;-145.18;100.00;46699.47;5013030;28;20498;-72
2022/12/22 04:52:29;;;;;;;119.70;25.50;;;;;;;-145.18;100.00;46695.56;5030052;28;20045;-72
2022/12/22 04:54:54;;;;;;;122.10;24.70;;;;;;;-145.18;100.00;46691.66;5012650;28;20124;-72
2022/12/22 04:57:20;;;;;;;96.30;25.00;;;;;;;-145.18;100.00;46699.47;5013002;28;20770;-72
2022/12/22 04:59:46;;;;;;;215.77;29.43;;;;;;;-145.18;100.00;46697.50;5030617;28;20029;-72
2022/12/22 05:02:12;;;;;;;71.23;23.07;;;;;;;-145.18;100.00;46703.38;5029354;28;20041;-72
2022/12/22 05:04:37;;;;;;;144.23;25.87;;;;;;;-145.18;100.00;46699.47;5030678;28;20473;-72
2022/12/22 05:07:03;;;;;;;141.77;25.80;;;;;;;-145.18;100.00;46699.47;4995883;28;20271;-72
2022/12/22 05:09:29;;;;;;;132.47;24.20;;;;;;;-145.18;100.00;46699.47;5030415;28;20624;-72
2022/12/22 05:11:54;;;;;;;317.47;32.43;;;;;;;-145.18;100.00;46697.50;5011898;28;20424;-72
2022/12/22 05:14:20;;;;;;;330.23;29.97;;;;;;;-145.18;100.00;46697.50;5030310;28;20137;-72
2022/12/22 05:16:45;;;;;;;240.00;29.27;;;;;;;-145.18;100.00;46709.22;5030209;28;20036;-72
2022/12/22 05:19:10;;;;;;;148.03;24.37;;;;;;;-145.18;100.00;46693.59;5029634;28;20065;-72
2022/12/22 05:21:36;;;;;;;142.40;25.70;;;;;;;-145.18;100.00;46695.56;5030119;28;20412;-72
2022/12/22 05:24:01;;;;;;;69.83;24.93;;;;;;;-145.18;100.00;46691.66;5012193;28;20037;-72
2022/12/22 05:26:27;;;;;;;63.13;25.60;;;;;;;-145.18;100.00;46699.47;5030483;28;20112;-72
2022/12/22 05:28:52;;;;;;;58.57;26.17;;;;;;;-145.18;100.00;46691.66;5029665;28;20413;-72
2022/12/22 05:31:20;;;;;;;49.77;24.77;;;;;;;-145.18;100.00;46709.22;5029695;28;20048;-72
2022/12/22 05:33:46;;;;;;;54.27;23.40;;;;;;;-145.18;100.00;46695.56;5030203;28;20044;-72
2022/12/22 05:36:12;;;;;;;54.77;24.13;;;;;;;-145.18;100.00;46693.59;5030127;28;20262;-72
2022/12/22 05:38:37;;;;;;;59.90;24.87;;;;;;;-145.18;100.00;46685.78;5030007;28;20029;-72
2022/12/22 05:41:03;;;;;;;62.43;24.87;;;;;;;-145.18;100.00;46697.50;5029626;28;20039;-72
2022/12/22 05:43:28;;;;;;;59.63;24.57;;;;;;;-145.18;100.00;46693.59;5029918;28;20039;-71
2022/12/22 05:45:53;;;;;;;67.73;25.80;;;;;;;-145.18;100.00;46689.69;5030049;28;20498;-72
2022/12/22 05:48:19;;;;;;;78.67;25.23;;;;;;;-145.18;100.00;46697.50;5029220;28;20474;-71
2022/12/22 05:50:45;;;;;;;90.47;29.33;;;;;;;-145.18;100.00;46685.78;5029363;28;20060;-72
2022/12/22 05:53:10;;;;;;;103.97;29.93;;;;;;;-145.18;100.00;46695.56;5027872;28;20512;-72
2022/12/22 05:55:36;;;;;;;105.30;29.93;;;;;;;-145.18;100.00;46687.75;5030021;28;20026;-72
2022/12/22 05:58:01;;;;;;;112.63;32.33;;;;;;;-145.18;100.00;46681.88;5030681;28;20437;-72
2022/12/22 06:00:30;;;;;;;112.37;32.67;;;;;;;-145.18;100.00;46689.69;5033392;28;20033;-72
2022/12/22 06:02:57;;;;;;;112.53;33.73;;;;;;;-145.18;100.00;46685.78;5032896;28;20046;-72
2022/12/22 06:05:22;;;;;;;107.40;32.37;;;;;;;-145.18;100.00;46685.78;5033659;28;20266;-72
2022/12/22 06:07:48;;;;;;;110.37;32.93;;;;;;;-145.18;100.00;46687.75;5033130;28;20755;-72
2022/12/22 06:10:14;;;;;;;110.73;32.77;;;;;;;-145.18;100.00;46695.56;5033351;28;20041;-72
2022/12/22 06:12:40;;;;;;;101.23;32.27;;;;;;;-145.18;100.00;46681.88;5033370;28;20663;-72
2022/12/22 06:15:07;;;;;;;109.93;32.10;;;;;;;-145.18;100.00;46691.66;5032988;28;20267;-72
2022/12/22 06:17:32;;;;;;;110.67;35.00;;;;;;;-145.18;100.00;46685.78;5032906;28;20267;-72
2022/12/22 06:19:58;;;;;;;110.03;35.03;;;;;;;-145.18;100.00;46689.69;5033164;28;20362;-72
2022/12/22 06:22:23;;;;;;;109.73;33.77;;;;;;;-145.18;100.00;46681.88;5033211;28;20029;-72
2022/12/22 06:24:48;;;;;;;104.63;32.43;;;;;;;-145.18;100.00;46683.84;5033173;28;20036;-72
2022/12/22 06:27:14;;;;;;;107.80;33.07;;;;;;;-145.18;100.00;46685.78;5032825;28;20131;-72
2022/12/22 06:29:39;;;;;;;108.40;33.43;;;;;;;-145.18;100.00;46687.75;5033161;28;20043;-71
2022/12/22 06:32:05;;;;;;;104.47;31.77;;;;;;;-145.18;100.00;46679.94;5016679;28;20061;-72
2022/12/22 06:34:30;;;;;;;105.07;33.67;;;;;;;-145.18;100.00;46693.59;5013093;28;20079;-72
2022/12/22 06:36:55;;;;;;;107.67;32.47;;;;;;;-145.18;100.00;46687.75;5012735;28;20061;-72
2022/12/22 06:39:21;;;;;;;101.83;32.77;;;;;;;-145.18;100.00;46685.78;5013084;28;20037;-72
2022/12/22 06:44:30;;;;;;;97.80;27.70;;;;;;;-145.18;100.00;46683.84;5013146;28;20033;-72
2022/12/22 06:46:56;;;;;;;91.00;28.77;;;;;;;-145.18;100.00;46679.94;5012659;28;20279;-72
2022/12/22 06:49:22;;;;;;;87.93;26.27;;;;;;;-145.18;100.00;46695.56;5013334;28;20033;-72
2022/12/22 06:51:48;;;;;;;85.63;24.97;;;;;;;-145.18;100.00;46683.84;5013160;28;20088;-72
2022/12/22 06:54:14;;;;;;;92.63;29.53;;;;;;;-145.18;100.00;46687.75;5012825;28;20084;-72
2022/12/22 06:56:39;;;;;;;93.70;28.63;;;;;;;-145.18;100.00;46689.69;5012970;28;20272;-72
2022/12/22 06:59:04;;;;;;;92.33;30.83;;;;;;;-145.18;100.00;46687.75;5012666;28;20500;-72
2022/12/22 07:01:30;;;;;;;97.97;31.17;;;;;;;-145.18;100.00;46685.78;5013261;28;20125;-71
2022/12/22 07:03:55;;;;;;;99.20;32.33;;;;;;;-145.18;100.00;46687.75;5012525;28;20046;-72
2022/12/22 07:06:21;;;;;;;96.67;30.33;;;;;;;-145.18;100.00;46683.84;5013094;28;20038;-72
2022/12/22 07:08:47;;;;;;;94.03;30.03;;;;;;;-145.18;100.00;46683.84;5012145;28;20045;-72
2022/12/22 07:11:13;;;;;;;99.43;31.57;;;;;;;-145.18;100.00;46687.75;5011169;28;20034;-73
2022/12/22 07:13:39;;;;;;;102.83;31.13;;;;;;;-145.18;100.00;46679.94;5011329;28;20275;-73
2022/12/22 07:16:06;;;;;;;98.07;32.47;;;;;;;-145.18;100.00;46685.78;5010981;28;20267;-72
2022/12/22 07:18:34;;;;;;;88.47;28.80;;;;;;;-145.18;100.00;46676.03;5012081;28;20042;-72
2022/12/22 07:21:01;;;;;;;75.53;27.23;;;;;;;-145.18;100.00;46689.69;5011741;28;20354;-72
2022/12/22 07:23:27;;;;;;;81.13;27.60;;;;;;;-145.18;100.00;46683.84;5012043;28;20810;-72
2022/12/22 07:25:52;;;;;;;85.90;29.33;;;;;;;-145.18;100.00;46683.84;5012325;28;20354;-72
2022/12/22 07:28:18;;;;;;;80.57;31.17;;;;;;;-145.18;100.00;46683.84;5011702;28;20042;-72
2022/12/22 07:30:43;;;;;;;75.47;28.83;;;;;;;-145.18;100.00;46687.75;4993812;28;20491;-72
2022/12/22 07:33:08;;;;;;;82.23;29.03;;;;;;;-145.18;100.00;46683.84;5011907;28;20052;-72
2022/12/22 07:35:34;;;;;;;82.17;28.83;;;;;;;-145.18;100.00;46683.84;5012444;28;20512;-72
2022/12/22 07:38:00;;;;;;;77.53;28.77;;;;;;;-145.18;100.00;46683.84;5011930;28;20048;-72
2022/12/22 07:40:25;;;;;;;70.27;26.97;;;;;;;-145.18;100.00;46695.56;5012181;28;20029;-72
2022/12/22 07:42:55;;;;;;;75.57;27.77;;;;;;;-145.18;100.00;46687.75;5011892;28;20034;-72
2022/12/22 07:45:21;;;;;;;78.73;28.37;;;;;;;-145.18;100.00;46681.88;5012409;28;20038;-72
2022/12/22 07:47:47;;;;;;;75.90;26.97;;;;;;;-145.18;100.00;46683.84;5011912;28;20379;-72
2022/12/22 07:50:26;;;;;;;65.67;27.13;;;;;;;-145.18;100.00;46683.84;5011887;28;20042;-72
2022/12/22 07:52:55;;;;;;;72.67;27.60;;;;;;;-145.18;100.00;46701.41;5011702;28;20034;-72
2022/12/22 07:55:22;;;;;;;76.50;27.03;;;;;;;-145.18;100.00;46699.47;5010745;28;20753;-72
2022/12/22 07:57:47;;;;;;;66.60;26.60;;;;;;;-145.18;100.00;46691.66;5011721;28;20398;-72
2022/12/22 08:00:13;;;;;;;75.30;27.27;;;;;;;-145.18;100.00;46689.69;5011575;28;20751;-72
2022/12/22 08:02:39;;;;;;;69.40;27.73;;;;;;;-145.18;100.00;46687.75;5011164;28;20093;-72
2022/12/22 08:05:05;;;;;;;63.17;27.93;;;;;;;-145.18;100.00;46695.56;5011631;28;20715;-72
2022/12/22 08:07:31;;;;;;;64.83;27.20;;;;;;;-145.18;100.00;46699.47;4994389;28;20037;-72
2022/12/22 08:09:57;;;;;;;62.53;26.27;;;;;;;-145.18;100.00;46689.69;5011335;28;20053;-72
2022/12/22 08:12:23;;;;;;;61.43;26.13;;;;;;;-145.18;100.00;46695.56;5011743;28;20338;-72
2022/12/22 08:14:48;;;;;;;79.57;27.63;;;;;;;-145.18;100.00;46691.66;5011400;28;20433;-72
2022/12/22 08:17:13;;;;;;;59.80;27.90;;;;;;;-145.18;100.00;46693.59;5011186;28;20033;-72
2022/12/22 08:19:39;;;;;;;64.00;27.73;;;;;;;-145.18;100.00;46695.56;5010946;28;20491;-72
2022/12/22 08:22:05;;;;;;;64.30;25.77;;;;;;;-145.18;100.00;46693.59;5011267;28;20505;-72
2022/12/22 08:24:30;;;;;;;65.83;28.40;;;;;;;-145.18;100.00;46687.75;5010778;28;20044;-72
2022/12/22 08:27:00;;;;;;;72.07;28.37;;;;;;;-145.18;100.00;46697.50;5011249;28;20073;-72
2022/12/22 08:29:39;;;;;;;60.23;24.90;;;;;;;-145.18;100.00;46701.41;4993583;28;20100;-72
2022/12/22 08:32:05;;;;;;;63.43;26.30;;;;;;;-145.18;100.00;46689.69;5011183;28;20361;-72
2022/12/22 08:34:31;;;;;;;54.67;23.03;;;;;;;-145.18;100.00;46693.59;5011025;28;20317;-73
2022/12/22 08:37:01;;;;;;;55.07;21.57;;;;;;;-145.18;100.00;46705.31;5010963;28;20639;-72
2022/12/22 08:39:30;;;;;;;52.43;21.67;;;;;;;-145.18;100.00;46697.50;5011175;28;20042;-73
2022/12/22 08:41:57;;;;;;;53.00;21.67;;;;;;;-145.18;100.00;46707.28;5011108;28;20714;-72
2022/12/22 08:44:27;;;;;;;55.03;21.37;;;;;;;-145.18;100.00;46703.38;5010768;28;20275;-72
2022/12/22 08:46:56;;;;;;;51.43;21.13;;;;;;;-145.18;100.00;46701.41;5011184;28;20929;-73
2022/12/22 08:49:22;;;;;;;55.87;21.10;;;;;;;-145.18;100.00;46707.28;5010809;28;20687;-72
2022/12/22 08:51:48;;;;;;;57.17;21.77;;;;;;;-145.18;100.00;46707.28;5011005;28;20275;-72
2022/12/22 08:54:14;;;;;;;57.70;21.30;;;;;;;-145.18;100.00;46705.31;5010702;28;20713;-72
2022/12/22 08:56:40;;;;;;;52.37;19.90;;;;;;;-145.18;100.00;46707.28;5010844;28;20267;-72
2022/12/22 08:59:07;;;;;;;49.43;19.60;;;;;;;-145.18;100.00;46703.38;5010633;28;20294;-73
2022/12/22 09:01:37;;;;;;;59.30;20.90;;;;;;;-145.18;100.00;46703.38;5010684;28;20271;-72
2022/12/22 09:04:05;;;;;;;49.40;20.37;;;;;;;-145.18;100.00;46705.31;5010571;28;20334;-72
2022/12/22 09:06:31;;;;;;;52.63;22.43;;;;;;;-145.18;100.00;46703.38;5010824;28;20350;-72
2022/12/22 09:08:59;;;;;;;53.00;18.93;;;;;;;-145.18;100.00;46701.41;5010452;28;20780;-72
2022/12/22 09:11:25;;;;;;;56.83;19.93;;;;;;;-145.18;100.00;46703.38;5011010;28;20121;-72
2022/12/22 09:13:52;;;;;;;50.57;19.77;;;;;;;-145.18;100.00;46697.50;5010473;28;20267;-73
2022/12/22 09:16:19;;;;;;;45.77;20.23;;;;;;;-145.18;100.00;46699.47;5010440;28;20286;-72
2022/12/22 09:18:45;;;;;;;46.93;19.77;;;;;;;-145.18;100.00;46697.50;5010617;28;20290;-72
2022/12/22 09:21:10;;;;;;;49.50;19.27;;;;;;;-145.18;100.00;46697.50;5008902;28;20874;-72
2022/12/22 09:23:36;;;;;;;48.07;18.67;;;;;;;-145.18;100.00;46695.56;5010580;28;20104;-74
2022/12/22 09:26:10;;;;;;;46.07;18.93;;;;;;;-145.18;100.00;46695.56;5010347;28;20061;-73
2022/12/22 09:28:36;;;;;;;37.60;15.50;;;;;;;-145.18;100.00;46697.50;5010324;28;20069;-74
2022/12/22 09:31:02;;;;;;;36.73;16.50;;;;;;;-145.18;100.00;46699.47;4993167;28;20282;-73
2022/12/22 09:33:27;;;;;;;39.67;17.80;;;;;;;-145.18;100.00;46695.56;5014383;28;20636;-73
2022/12/22 09:35:53;;;;;;;35.07;16.43;;;;;;;-145.18;100.00;46691.66;5014633;28;20282;-73
2022/12/22 09:38:19;;;;;;;39.80;17.00;;;;;;;-145.18;100.00;46693.59;4996653;28;20033;-73
2022/12/22 09:40:44;;;;;;;40.23;16.50;;;;;;;-145.18;100.00;46689.69;5014571;28;20061;-73
2022/12/22 09:43:17;;;;;;;45.87;16.80;;;;;;;-145.18;100.00;46693.59;5013958;28;20037;-73
2022/12/22 09:45:44;;;;;;;40.93;17.47;;;;;;;-145.18;100.00;46689.69;5014366;28;20474;-73
2022/12/22 09:48:12;;;;;;;41.87;16.83;;;;;;;-145.18;100.00;46693.59;5014003;28;20303;-73
2022/12/22 09:50:39;;;;;;;38.83;16.63;;;;;;;-145.18;100.00;46689.69;5014454;28;20270;-73
2022/12/22 09:53:09;;;;;;;41.37;15.93;;;;;;;-145.18;100.00;46691.66;5013874;28;20267;-73
2022/12/22 09:55:41;;;;;;;40.00;15.33;;;;;;;-145.18;100.00;46691.66;5014576;28;20271;-73
2022/12/22 09:58:27;;;;;;;33.90;15.93;;;;;;;-145.18;100.00;46687.75;5013593;28;20272;-73
2022/12/22 10:01:06;;;;;;;33.35;15.07;;;;;;;-145.18;100.00;46693.59;5014223;28;20342;-73
2022/12/22 10:03:42;;;;;;;37.73;16.30;;;;;;;-145.18;100.00;46697.50;5013872;28;20050;-73
2022/12/22 10:06:20;;;;;;;30.92;14.02;;;;;;;-145.18;100.00;46693.59;5013756;28;20346;-73
2022/12/22 10:08:45;;;;;;;38.20;13.83;;;;;;;-145.18;100.00;46689.69;5013686;28;20045;-73
2022/12/22 10:11:17;;;;;;;34.13;14.20;;;;;;;-145.18;100.00;46691.66;5013767;28;20774;-73
2022/12/22 10:13:44;;;;;;;35.20;14.83;;;;;;;-145.18;100.00;46693.59;5013736;28;20445;-73
2022/12/22 10:16:25;;;;;;;33.63;15.00;;;;;;;-145.18;100.00;46693.59;5013755;28;20294;-74
2022/12/22 10:19:06;;;;;;;31.77;14.30;;;;;;;-145.18;100.00;46691.66;5013378;28;20267;-73
2022/12/22 10:21:32;;;;;;;29.77;12.70;;;;;;;-145.18;100.00;46695.56;5013869;28;20271;-74
2022/12/22 10:23:57;;;;;;;25.27;12.33;;;;;;;-145.18;100.00;46695.56;5013370;28;20272;-74
2022/12/22 10:26:27;;;;;;;25.30;12.47;;;;;;;-145.18;100.00;46695.56;5013847;28;20033;-73
2022/12/22 10:28:59;;;;;;;33.93;13.23;;;;;;;-145.18;100.00;46695.56;5013196;28;20057;-73
2022/12/22 10:31:28;;;;;;;32.70;12.70;;;;;;;-145.18;100.00;46697.50;5013803;28;20287;-73
2022/12/22 10:34:08;;;;;;;30.97;14.13;;;;;;;-145.18;100.00;46699.47;5013322;28;20631;-73
2022/12/22 10:36:34;;;;;;;30.47;14.97;;;;;;;-145.18;100.00;46699.47;5013641;28;20264;-73
2022/12/22 10:39:06;;;;;;;33.00;15.03;;;;;;;-145.18;100.00;46699.47;5012981;28;20498;-74
2022/12/22 10:41:36;;;;;;;31.40;15.13;;;;;;;-145.18;100.00;46699.47;5013654;28;20539;-73
2022/12/22 10:44:05;;;;;;;35.90;16.17;;;;;;;-145.18;100.00;46699.47;5012462;28;20251;-73
2022/12/22 10:46:43;;;;;;;30.67;15.43;;;;;;;-145.18;100.00;46705.31;5013152;28;20274;-73
2022/12/22 10:49:35;;;;;;;29.43;14.50;;;;;;;-145.18;100.00;46703.38;5012819;28;20295;-73
2022/12/22 10:52:22;;;;;;;25.40;14.20;;;;;;;-145.18;100.00;46707.28;5013133;28;20795;-73
2022/12/22 10:54:47;;;;;;;28.80;13.63;;;;;;;-145.18;100.00;46703.38;5012794;28;20282;-73
2022/12/22 10:57:13;;;;;;;24.97;14.70;;;;;;;-145.18;100.00;46705.31;5012847;28;20639;-73
2022/12/22 11:00:00;;;;;;;25.53;14.40;;;;;;;-145.18;100.00;46703.38;5012869;28;20174;-73
2022/12/22 11:02:38;;;;;;;28.13;14.60;;;;;;;-145.18;100.00;46707.28;5012644;28;20058;-73
2022/12/22 11:05:05;;;;;;;29.83;13.63;;;;;;;-145.18;100.00;46707.28;5012822;28;20275;-73
2022/12/22 11:07:33;;;;;;;32.47;15.87;;;;;;;-145.18;100.00;46705.31;5013024;28;20617;-73
2022/12/22 11:09:59;;;;;;;34.30;15.60;;;;;;;-145.18;100.00;46707.28;5011143;28;20275;-73
2022/12/22 11:12:38;;;;;;;33.77;15.53;;;;;;;-145.18;100.00;46705.31;5012881;28;20275;-73
2022/12/22 11:15:41;;;;;;;27.97;14.33;;;;;;;-145.18;100.00;46709.22;5012209;28;20368;-73
2022/12/22 11:18:22;;;;;;;28.53;14.57;;;;;;;-145.18;100.00;46707.28;5012707;28;20268;-73
2022/12/22 11:21:00;;;;;;;30.00;16.03;;;;;;;-145.18;100.00;46711.19;4994908;28;20617;-73
2022/12/22 11:23:39;;;;;;;63.87;23.03;;;;;;;-145.18;100.00;46711.19;5012520;28;20033;-73
2022/12/22 11:26:19;;;;;;;53.50;22.23;;;;;;;-145.18;100.00;46709.22;5012539;28;20303;-73
2022/12/22 11:29:04;;;;;;;40.87;19.40;;;;;;;-145.18;100.00;46707.28;4994602;28;20659;-73
2022/12/22 11:31:35;;;;;;;40.13;19.10;;;;;;;-145.18;100.00;46711.19;5012566;28;20267;-73
2022/12/22 11:34:19;;;;;;;45.00;20.63;;;;;;;-145.18;100.00;46711.19;5012132;28;20267;-73
2022/12/22 11:36:55;;;;;;;46.10;21.00;;;;;;;-145.18;100.00;46709.22;5012627;28;20330;-73
2022/12/22 11:39:44;;;;;;;48.50;24.02;;;;;;;-145.18;100.00;46707.28;5012270;28;20271;-73
2022/12/22 11:42:30;;;;;;;45.13;22.83;;;;;;;-145.18;100.00;46711.19;5012266;28;20022;-73
2022/12/22 11:44:58;;;;;;;48.42;20.95;;;;;;;-145.18;100.00;46715.09;5011849;28;20263;-73
2022/12/22 11:47:46;;;;;;;47.63;19.57;;;;;;;-145.18;100.00;46703.38;5012347;28;20109;-73
2022/12/22 11:50:35;;;;;;;44.70;18.93;;;;;;;-145.18;100.00;46707.28;5011757;28;20290;-73
2022/12/22 11:53:25;;;;;;;46.00;20.17;;;;;;;-145.18;100.00;46709.22;5011786;28;20267;-73
2022/12/22 11:56:04;;;;;;;45.03;19.10;;;;;;;-145.18;100.00;46705.31;5011036;28;20289;-73
2022/12/22 11:58:51;;;;;;;41.63;18.63;;;;;;;-145.18;100.00;46705.31;5011748;28;20271;-73
2022/12/22 12:01:46;;;;;;;39.53;18.10;;;;;;;-145.18;100.00;46715.09;5011792;28;20294;-73
2022/12/22 12:04:26;;;;;;;43.43;18.27;;;;;;;-145.18;100.00;46707.28;5011400;28;20287;-73
2022/12/22 12:07:07;;;;;;;38.97;15.50;;;;;;;-145.18;100.00;46707.28;5022700;28;20286;-73
2022/12/22 12:09:44;;;;;;;42.40;17.63;;;;;;;-145.18;100.00;46711.19;5031450;28;20441;-73
2022/12/22 12:12:36;;;;;;;43.97;19.97;;;;;;;-145.18;100.00;46705.31;5031372;28;20263;-73
2022/12/22 12:15:36;;;;;;;43.67;19.13;;;;;;;-145.18;100.00;46705.31;5030928;28;20263;-72
2022/12/22 12:18:20;;;;;;;40.77;18.77;;;;;;;-145.18;100.00;46711.19;5011342;28;20767;-73
2022/12/22 12:21:09;;;;;;;42.33;21.27;;;;;;;-145.18;100.00;46711.19;5031239;28;20278;-73
2022/12/22 12:23:59;;;;;;;44.83;22.53;;;;;;;-145.18;100.00;46711.19;5031297;28;20266;-73
2022/12/22 12:26:38;;;;;;;42.07;20.53;;;;;;;-145.18;100.00;46709.22;5031534;28;20321;-73
2022/12/22 12:29:17;;;;;;;44.30;22.53;;;;;;;-145.18;100.00;46709.22;5030725;28;20865;-73
2022/12/22 12:32:02;;;;;;;44.93;23.13;;;;;;;-145.18;100.00;46713.13;5031065;28;20267;-73
2022/12/22 12:34:32;;;;;;;44.40;22.57;;;;;;;-145.18;100.00;46707.28;5013342;28;20325;-73
2022/12/22 12:37:11;;;;;;;52.30;23.47;;;;;;;-145.18;100.00;46707.28;5030826;28;20307;-73
2022/12/22 12:39:49;;;;;;;47.90;24.57;;;;;;;-145.18;100.00;46707.28;5012849;28;20274;-73
2022/12/22 12:42:35;;;;;;;51.37;26.57;;;;;;;-145.18;100.00;46707.28;5030863;28;20297;-73
2022/12/22 12:45:01;;;;;;;50.65;23.77;;;;;;;-145.18;100.00;46705.31;5030594;28;20277;-73
2022/12/22 12:47:26;;;;;;;42.57;23.97;;;;;;;-145.18;100.00;46711.19;5030756;28;20053;-73
2022/12/22 12:49:58;;;;;;;42.03;21.43;;;;;;;-145.18;100.00;46703.38;5030367;28;20271;-73
2022/12/22 12:52:38;;;;;;;46.50;23.33;;;;;;;-145.18;100.00;46707.28;5031055;28;20033;-73
2022/12/22 12:55:19;;;;;;;45.40;21.83;;;;;;;-145.18;100.00;46701.41;5030483;28;20255;-73
2022/12/22 12:57:47;;;;;;;44.97;23.40;;;;;;;-145.18;100.00;46709.22;5030534;28;20267;-73
2022/12/22 13:00:31;;;;;;;43.63;22.90;;;;;;;-145.18;100.00;46711.19;5030094;28;20694;-73
2022/12/22 13:02:59;;;;;;;52.30;26.50;;;;;;;-145.18;100.00;46705.31;5030420;28;20356;-73
2022/12/22 13:05:31;;;;;;;54.77;24.00;;;;;;;-145.18;100.00;46709.22;5030274;28;20262;-72
2022/12/22 13:08:07;;;;;;;49.03;25.80;;;;;;;-145.18;100.00;46709.22;5030031;28;20290;-73
2022/12/22 13:10:52;;;;;;;51.20;26.42;;;;;;;-145.18;100.00;46709.22;5030382;28;20271;-73
2022/12/22 13:13:24;;;;;;;47.45;26.73;;;;;;;-145.18;100.00;46715.09;5017042;28;20037;-73
2022/12/22 13:15:58;;;;;;;56.90;29.00;;;;;;;-145.18;100.00;46717.03;5026340;28;20029;-73
2022/12/22 13:18:23;;;;;;;48.03;26.53;;;;;;;-145.18;100.00;46715.09;5029653;28;20262;-73
2022/12/22 13:21:05;;;;;;;54.70;29.00;;;;;;;-145.18;100.00;46720.94;5026801;28;20362;-73
2022/12/22 13:23:37;;;;;;;49.23;26.13;;;;;;;-145.18;100.00;46722.91;5029693;28;20029;-73
2022/12/22 13:26:13;;;;;;;53.17;27.63;;;;;;;-145.18;100.00;46720.94;5029760;28;20298;-73
2022/12/22 13:28:41;;;;;;;46.63;25.77;;;;;;;-145.18;100.00;46720.94;5030163;28;20305;-73
2022/12/22 13:31:23;;;;;;;48.97;27.17;;;;;;;-145.18;100.00;46722.91;5023910;28;20079;-73
2022/12/22 13:34:05;;;;;;;49.30;27.43;;;;;;;-145.18;100.00;46722.91;5022043;28;20278;-73
2022/12/22 13:36:31;;;;;;;51.00;27.03;;;;;;;-145.18;100.00;46720.94;5024785;28;20277;-73
2022/12/22 13:39:20;;;;;;;51.50;27.50;;;;;;;-145.18;100.00;46719.00;5029375;28;20286;-73
2022/12/22 13:41:48;;;;;;;52.97;26.80;;;;;;;-145.18;100.00;46719.00;5029645;28;20266;-73
2022/12/22 13:44:18;;;;;;;48.43;27.30;;;;;;;-145.18;100.00;46719.00;5025934;28;20298;-73
2022/12/22 13:46:44;;;;;;;51.03;26.50;;;;;;;-145.18;100.00;46715.09;5016488;28;20651;-73
2022/12/22 13:49:15;;;;;;;52.50;27.37;;;;;;;-145.18;100.00;46715.09;5025056;28;20298;-73
2022/12/22 13:51:41;;;;;;;52.90;28.63;;;;;;;-145.18;100.00;46719.00;5010397;28;20105;-73
2022/12/22 13:54:25;;;;;;;53.60;28.70;;;;;;;-145.18;100.00;46717.03;5023451;28;20282;-73
2022/12/22 13:56:53;;;;;;;50.17;28.20;;;;;;;-145.18;100.00;46720.94;5029288;28;20274;-73
2022/12/22 13:59:38;;;;;;;52.13;28.60;;;;;;;-145.18;100.00;46719.00;5027620;28;20393;-73
2022/12/22 14:02:17;;;;;;;52.40;29.20;;;;;;;-145.18;100.00;46719.00;5025055;28;20029;-73
2022/12/22 14:05:02;;;;;;;50.83;28.30;;;;;;;-145.18;100.00;46719.00;5028789;28;20029;-73
2022/12/22 14:07:27;;;;;;;44.77;26.80;;;;;;;-145.18;100.00;46713.13;5029460;28;20033;-74
2022/12/22 14:09:55;;;;;;;53.77;26.93;;;;;;;-145.18;100.00;46719.00;5029409;28;20325;-73
2022/12/22 14:12:26;;;;;;;49.97;27.07;;;;;;;-145.18;100.00;46717.03;5029562;28;20057;-73
2022/12/22 14:14:54;;;;;;;53.77;28.43;;;;;;;-145.18;100.00;46717.03;5028365;28;20321;-74
2022/12/22 14:17:28;;;;;;;49.10;27.60;;;;;;;-145.18;100.00;46717.03;5028917;28;20289;-73
2022/12/22 14:19:57;;;;;;;48.20;27.90;;;;;;;-145.18;100.00;46719.00;5032823;28;20287;-73
2022/12/22 14:22:27;;;;;;;47.50;25.73;;;;;;;-145.18;100.00;46719.00;5026859;28;20022;-73
2022/12/22 14:25:14;;;;;;;46.73;28.17;;;;;;;-145.18;100.00;46717.03;5021887;28;20363;-73
2022/12/22 14:27:45;;;;;;;48.20;26.93;;;;;;;-145.18;100.00;46720.94;5018868;28;20065;-73
2022/12/22 14:30:17;;;;;;;50.67;28.10;;;;;;;-145.18;100.00;46719.00;5032210;28;20274;-73
2022/12/22 14:32:45;;;;;;;45.63;26.93;;;;;;;-145.18;100.00;46717.03;5033373;28;20263;-73
2022/12/22 14:35:36;;;;;;;50.57;28.50;;;;;;;-145.18;100.00;46717.03;5031836;28;20301;-73
2022/12/22 14:38:01;;;;;;;47.13;25.27;;;;;;;-145.18;100.00;46720.94;5028387;28;20283;-73
2022/12/22 14:40:29;;;;;;;49.13;26.73;;;;;;;-145.18;100.00;46722.91;5032308;28;20266;-73
2022/12/22 14:42:56;;;;;;;49.00;25.67;;;;;;;-145.18;100.00;46719.00;5032862;28;20042;-72